sensor_id;sensor_type;location;lat;lon;timestamp;temperature;humidity
21403;DHT22;10862;51.886;17.078;2024-03-07T00:00:08;3.90;1.00
21403;DHT22;10862;51.886;17.078;2024-03-07T00:02:41;3.70;99.90
21403;DHT22;10862;51.886;17.078;2024-03-07T00:05:07;4.10;1.00
21403;DHT22;10862;51.886;17.078;2024-03-07T00:07:33;3.70;1.00
21403;DHT22;10862;51.886;17.078;2024-03-07T00:10:00;4.00;1.00
21403;DHT22;10862;51.886;17.078;2024-03-07T00:12:25;4.40;1.00
21403;DHT22;10862;51.886;17.078;2024-03-07T00:14:52;3.60;1.00
21403;DHT22;10862;51.886;17.078;2024-03-07T00:17:18;3.70;1.00
21403;DHT22;10862;51.886;17.078;2024-03-07T00:19:44;4.80;1.00
21403;DHT22;10862;51.886;17.078;2024-03-07T00:22:10;4.30;1.00
21403;DHT22;10862;51.886;17.078;2024-03-07T00:24:35;4.20;1.00
21403;DHT22;10862;51.886;17.078;2024-03-07T00:27:02;4.10;1.00
21403;DHT22;10862;51.886;17.078;2024-03-07T00:29:28;3.30;1.00
21403;DHT22;10862;51.886;17.078;2024-03-07T00:31:54;4.00;1.00
21403;DHT22;10862;51.886;17.078;2024-03-07T00:34:20;3.80;99.90
21403;DHT22;10862;51.886;17.078;2024-03-07T00:36:46;3.10;1.00
21403;DHT22;10862;51.886;17.078;2024-03-07T00:39:12;3.80;1.00
21403;DHT22;10862;51.886;17.078;2024-03-07T00:41:40;3.90;1.00
21403;DHT22;10862;51.886;17.078;2024-03-07T00:44:06;3.00;1.00
21403;DHT22;10862;51.886;17.078;2024-03-07T00:46:34;2.70;1.00
21403;DHT22;10862;51.886;17.078;2024-03-07T00:49:00;3.00;99.90
21403;DHT22;10862;51.886;17.078;2024-03-07T00:51:25;3.00;99.90
21403;DHT22;10862;51.886;17.078;2024-03-07T00:53:51;3.50;99.90
21403;DHT22;10862;51.886;17.078;2024-03-07T00:56:16;2.90;99.90
21403;DHT22;10862;51.886;17.078;2024-03-07T00:58:42;3.40;99.90
21403;DHT22;10862;51.886;17.078;2024-03-07T01:01:07;3.10;99.90
21403;DHT22;10862;51.886;17.078;2024-03-07T01:03:33;3.90;99.90
21403;DHT22;10862;51.886;17.078;2024-03-07T01:05:59;3.30;99.90
21403;DHT22;10862;51.886;17.078;2024-03-07T01:08:24;2.90;99.90
21403;DHT22;10862;51.886;17.078;2024-03-07T01:10:50;3.00;99.90
21403;DHT22;10862;51.886;17.078;2024-03-07T01:13:15;2.60;99.90
21403;DHT22;10862;51.886;17.078;2024-03-07T01:15:47;2.40;99.90
21403;DHT22;10862;51.886;17.078;2024-03-07T01:18:14;3.10;99.90
21403;DHT22;10862;51.886;17.078;2024-03-07T01:20:39;2.80;99.90
21403;DHT22;10862;51.886;17.078;2024-03-07T01:23:05;3.50;99.90
21403;DHT22;10862;51.886;17.078;2024-03-07T01:25:30;3.10;99.90
21403;DHT22;10862;51.886;17.078;2024-03-07T01:28:02;4.50;99.90
21403;DHT22;10862;51.886;17.078;2024-03-07T01:30:29;3.40;99.90
21403;DHT22;10862;51.886;17.078;2024-03-07T01:32:55;3.90;99.90
21403;DHT22;10862;51.886;17.078;2024-03-07T01:35:21;3.10;99.90
21403;DHT22;10862;51.886;17.078;2024-03-07T01:37:46;3.90;99.90
21403;DHT22;10862;51.886;17.078;2024-03-07T01:40:12;3.40;99.90
21403;DHT22;10862;51.886;17.078;2024-03-07T01:42:39;3.60;99.90
21403;DHT22;10862;51.886;17.078;2024-03-07T01:45:05;3.50;99.90
21403;DHT22;10862;51.886;17.078;2024-03-07T01:47:31;3.70;99.40
21403;DHT22;10862;51.886;17.078;2024-03-07T01:49:56;3.60;99.90
21403;DHT22;10862;51.886;17.078;2024-03-07T01:52:22;4.00;1.00
21403;DHT22;10862;51.886;17.078;2024-03-07T01:54:47;4.10;99.90
21403;DHT22;10862;51.886;17.078;2024-03-07T01:57:14;4.70;1.00
21403;DHT22;10862;51.886;17.078;2024-03-07T01:59:40;3.90;1.00
21403;DHT22;10862;51.886;17.078;2024-03-07T02:02:05;4.00;1.00
21403;DHT22;10862;51.886;17.078;2024-03-07T02:04:31;3.90;1.00
21403;DHT22;10862;51.886;17.078;2024-03-07T02:06:56;3.70;23.00
21403;DHT22;10862;51.886;17.078;2024-03-07T02:09:22;3.90;1.00
21403;DHT22;10862;51.886;17.078;2024-03-07T02:11:48;3.70;1.00
21403;DHT22;10862;51.886;17.078;2024-03-07T02:14:14;3.70;1.00
21403;DHT22;10862;51.886;17.078;2024-03-07T02:16:40;3.70;1.00
21403;DHT22;10862;51.886;17.078;2024-03-07T02:19:05;4.70;1.00
21403;DHT22;10862;51.886;17.078;2024-03-07T02:21:31;3.70;1.00
21403;DHT22;10862;51.886;17.078;2024-03-07T02:23:57;4.00;1.00
21403;DHT22;10862;51.886;17.078;2024-03-07T02:26:23;4.00;1.00
21403;DHT22;10862;51.886;17.078;2024-03-07T02:28:48;3.70;1.00
21403;DHT22;10862;51.886;17.078;2024-03-07T02:31:14;3.80;1.00
21403;DHT22;10862;51.886;17.078;2024-03-07T02:33:40;4.30;1.00
21403;DHT22;10862;51.886;17.078;2024-03-07T02:36:06;3.60;1.00
21403;DHT22;10862;51.886;17.078;2024-03-07T02:38:32;3.90;26.10
21403;DHT22;10862;51.886;17.078;2024-03-07T02:40:57;3.80;1.00
21403;DHT22;10862;51.886;17.078;2024-03-07T02:43:24;4.00;1.00
21403;DHT22;10862;51.886;17.078;2024-03-07T02:45:49;4.90;1.00
21403;DHT22;10862;51.886;17.078;2024-03-07T02:48:15;4.20;25.20
21403;DHT22;10862;51.886;17.078;2024-03-07T02:50:43;4.00;17.50
21403;DHT22;10862;51.886;17.078;2024-03-07T02:53:09;3.70;23.70
21403;DHT22;10862;51.886;17.078;2024-03-07T02:55:34;4.10;58.30
21403;DHT22;10862;51.886;17.078;2024-03-07T02:58:00;3.60;99.90
21403;DHT22;10862;51.886;17.078;2024-03-07T03:00:26;3.80;99.90
21403;DHT22;10862;51.886;17.078;2024-03-07T03:02:57;4.90;99.90
21403;DHT22;10862;51.886;17.078;2024-03-07T03:05:23;3.70;99.70
21403;DHT22;10862;51.886;17.078;2024-03-07T03:07:48;4.50;99.90
21403;DHT22;10862;51.886;17.078;2024-03-07T03:10:21;4.00;99.90
21403;DHT22;10862;51.886;17.078;2024-03-07T03:12:49;4.50;99.90
21403;DHT22;10862;51.886;17.078;2024-03-07T03:15:15;4.20;18.90
21403;DHT22;10862;51.886;17.078;2024-03-07T03:17:40;4.00;35.80
21403;DHT22;10862;51.886;17.078;2024-03-07T03:20:06;3.90;1.00
21403;DHT22;10862;51.886;17.078;2024-03-07T03:22:52;3.80;99.90
21403;DHT22;10862;51.886;17.078;2024-03-07T03:25:19;3.80;99.90
21403;DHT22;10862;51.886;17.078;2024-03-07T03:27:44;4.00;99.90
21403;DHT22;10862;51.886;17.078;2024-03-07T03:30:10;3.70;99.90
21403;DHT22;10862;51.886;17.078;2024-03-07T03:32:39;4.00;99.90
21403;DHT22;10862;51.886;17.078;2024-03-07T03:35:05;4.00;99.90
21403;DHT22;10862;51.886;17.078;2024-03-07T03:37:30;3.90;99.90
21403;DHT22;10862;51.886;17.078;2024-03-07T03:39:56;3.60;99.90
21403;DHT22;10862;51.886;17.078;2024-03-07T03:42:21;3.90;99.90
21403;DHT22;10862;51.886;17.078;2024-03-07T03:44:47;4.70;99.90
21403;DHT22;10862;51.886;17.078;2024-03-07T03:47:13;3.80;99.90
21403;DHT22;10862;51.886;17.078;2024-03-07T03:49:39;3.90;99.90
21403;DHT22;10862;51.886;17.078;2024-03-07T03:52:04;4.20;99.90
21403;DHT22;10862;51.886;17.078;2024-03-07T03:54:30;3.90;99.90
21403;DHT22;10862;51.886;17.078;2024-03-07T03:56:55;3.90;99.90
21403;DHT22;10862;51.886;17.078;2024-03-07T03:59:21;4.00;99.90
21403;DHT22;10862;51.886;17.078;2024-03-07T04:01:46;3.90;99.90
21403;DHT22;10862;51.886;17.078;2024-03-07T04:04:13;4.60;99.90
21403;DHT22;10862;51.886;17.078;2024-03-07T04:06:38;3.80;99.90
21403;DHT22;10862;51.886;17.078;2024-03-07T04:09:05;3.90;99.90
21403;DHT22;10862;51.886;17.078;2024-03-07T04:11:30;3.70;99.90
21403;DHT22;10862;51.886;17.078;2024-03-07T04:13:56;3.90;99.90
21403;DHT22;10862;51.886;17.078;2024-03-07T04:16:21;3.80;99.90
21403;DHT22;10862;51.886;17.078;2024-03-07T04:18:48;3.90;99.90
21403;DHT22;10862;51.886;17.078;2024-03-07T04:21:13;4.80;99.90
21403;DHT22;10862;51.886;17.078;2024-03-07T04:23:40;4.40;99.90
21403;DHT22;10862;51.886;17.078;2024-03-07T04:26:05;4.00;99.90
21403;DHT22;10862;51.886;17.078;2024-03-07T04:28:31;4.90;99.90
21403;DHT22;10862;51.886;17.078;2024-03-07T04:30:56;4.30;99.90
21403;DHT22;10862;51.886;17.078;2024-03-07T04:33:22;4.70;99.90
21403;DHT22;10862;51.886;17.078;2024-03-07T04:35:48;5.00;99.90
21403;DHT22;10862;51.886;17.078;2024-03-07T04:38:13;4.70;88.80
21403;DHT22;10862;51.886;17.078;2024-03-07T04:40:41;4.70;99.90
21403;DHT22;10862;51.886;17.078;2024-03-07T04:43:06;4.70;99.90
21403;DHT22;10862;51.886;17.078;2024-03-07T04:45:33;4.30;99.90
21403;DHT22;10862;51.886;17.078;2024-03-07T04:47:59;3.50;99.90
21403;DHT22;10862;51.886;17.078;2024-03-07T04:50:24;2.90;99.90
21403;DHT22;10862;51.886;17.078;2024-03-07T04:52:51;3.70;99.90
21403;DHT22;10862;51.886;17.078;2024-03-07T04:55:17;3.90;99.90
21403;DHT22;10862;51.886;17.078;2024-03-07T04:57:43;3.10;99.90
21403;DHT22;10862;51.886;17.078;2024-03-07T05:00:09;2.90;99.90
21403;DHT22;10862;51.886;17.078;2024-03-07T05:02:41;2.90;99.90
21403;DHT22;10862;51.886;17.078;2024-03-07T05:05:07;3.30;1.00
21403;DHT22;10862;51.886;17.078;2024-03-07T05:07:33;2.70;1.00
21403;DHT22;10862;51.886;17.078;2024-03-07T05:09:59;3.70;1.00
21403;DHT22;10862;51.886;17.078;2024-03-07T05:12:24;3.00;1.00
21403;DHT22;10862;51.886;17.078;2024-03-07T05:14:50;2.90;1.00
21403;DHT22;10862;51.886;17.078;2024-03-07T05:17:16;2.40;99.90
21403;DHT22;10862;51.886;17.078;2024-03-07T05:19:41;2.20;99.90
21403;DHT22;10862;51.886;17.078;2024-03-07T05:22:06;2.30;1.00
21403;DHT22;10862;51.886;17.078;2024-03-07T05:24:33;3.20;1.00
21403;DHT22;10862;51.886;17.078;2024-03-07T05:26:59;2.80;1.00
21403;DHT22;10862;51.886;17.078;2024-03-07T05:29:24;1.90;1.00
21403;DHT22;10862;51.886;17.078;2024-03-07T05:31:50;2.80;1.00
21403;DHT22;10862;51.886;17.078;2024-03-07T05:34:16;2.20;1.00
21403;DHT22;10862;51.886;17.078;2024-03-07T05:36:45;2.10;1.00
21403;DHT22;10862;51.886;17.078;2024-03-07T05:39:14;1.80;1.00
21403;DHT22;10862;51.886;17.078;2024-03-07T05:41:43;2.90;1.00
21403;DHT22;10862;51.886;17.078;2024-03-07T05:44:10;2.10;1.00
21403;DHT22;10862;51.886;17.078;2024-03-07T05:46:36;2.20;1.00
21403;DHT22;10862;51.886;17.078;2024-03-07T05:49:06;1.60;99.90
21403;DHT22;10862;51.886;17.078;2024-03-07T05:51:32;2.70;1.00
21403;DHT22;10862;51.886;17.078;2024-03-07T05:53:57;3.00;99.90
21403;DHT22;10862;51.886;17.078;2024-03-07T05:56:23;1.60;1.00
21403;DHT22;10862;51.886;17.078;2024-03-07T05:58:48;1.70;99.90
21403;DHT22;10862;51.886;17.078;2024-03-07T06:01:14;1.70;99.90
21403;DHT22;10862;51.886;17.078;2024-03-07T06:03:39;1.80;99.90
21403;DHT22;10862;51.886;17.078;2024-03-07T06:06:05;1.60;99.90
21403;DHT22;10862;51.886;17.078;2024-03-07T06:08:36;2.10;99.90
21403;DHT22;10862;51.886;17.078;2024-03-07T06:11:02;1.90;99.90
21403;DHT22;10862;51.886;17.078;2024-03-07T06:13:27;2.10;99.90
21403;DHT22;10862;51.886;17.078;2024-03-07T06:15:53;1.60;99.90
21403;DHT22;10862;51.886;17.078;2024-03-07T06:18:19;1.80;99.90
21403;DHT22;10862;51.886;17.078;2024-03-07T06:20:44;1.90;83.80
21403;DHT22;10862;51.886;17.078;2024-03-07T06:23:10;1.60;99.90
21403;DHT22;10862;51.886;17.078;2024-03-07T06:25:41;1.60;99.90
21403;DHT22;10862;51.886;17.078;2024-03-07T06:28:13;2.10;99.90
21403;DHT22;10862;51.886;17.078;2024-03-07T06:30:39;1.70;99.90
21403;DHT22;10862;51.886;17.078;2024-03-07T06:33:08;2.00;40.10
21403;DHT22;10862;51.886;17.078;2024-03-07T06:35:34;1.70;1.00
21403;DHT22;10862;51.886;17.078;2024-03-07T06:38:04;2.00;1.00
21403;DHT22;10862;51.886;17.078;2024-03-07T06:40:31;2.10;1.00
21403;DHT22;10862;51.886;17.078;2024-03-07T06:43:01;2.50;1.00
21403;DHT22;10862;51.886;17.078;2024-03-07T06:45:32;2.10;1.00
21403;DHT22;10862;51.886;17.078;2024-03-07T06:47:57;2.10;1.00
21403;DHT22;10862;51.886;17.078;2024-03-07T06:50:23;3.30;1.00
21403;DHT22;10862;51.886;17.078;2024-03-07T06:52:48;2.50;99.90
21403;DHT22;10862;51.886;17.078;2024-03-07T06:55:18;3.10;99.90
21403;DHT22;10862;51.886;17.078;2024-03-07T06:57:46;2.10;99.90
21403;DHT22;10862;51.886;17.078;2024-03-07T07:00:13;2.20;99.90
21403;DHT22;10862;51.886;17.078;2024-03-07T07:02:42;2.30;99.90
21403;DHT22;10862;51.886;17.078;2024-03-07T07:05:07;2.50;99.90
21403;DHT22;10862;51.886;17.078;2024-03-07T07:07:41;2.30;99.90
21403;DHT22;10862;51.886;17.078;2024-03-07T07:10:07;2.00;30.10
21403;DHT22;10862;51.886;17.078;2024-03-07T07:12:35;2.40;13.20
21403;DHT22;10862;51.886;17.078;2024-03-07T07:15:01;3.10;1.00
21403;DHT22;10862;51.886;17.078;2024-03-07T07:17:27;3.40;1.00
21403;DHT22;10862;51.886;17.078;2024-03-07T07:19:54;2.10;1.00
21403;DHT22;10862;51.886;17.078;2024-03-07T07:22:21;3.00;1.00
21403;DHT22;10862;51.886;17.078;2024-03-07T07:24:47;2.40;1.00
21403;DHT22;10862;51.886;17.078;2024-03-07T07:27:12;3.40;1.00
21403;DHT22;10862;51.886;17.078;2024-03-07T07:29:37;3.50;1.00
21403;DHT22;10862;51.886;17.078;2024-03-07T07:32:04;3.70;1.00
21403;DHT22;10862;51.886;17.078;2024-03-07T07:34:30;2.90;99.90
21403;DHT22;10862;51.886;17.078;2024-03-07T07:36:55;3.70;99.90
21403;DHT22;10862;51.886;17.078;2024-03-07T07:39:21;3.90;99.90
21403;DHT22;10862;51.886;17.078;2024-03-07T07:41:47;3.90;99.90
21403;DHT22;10862;51.886;17.078;2024-03-07T07:44:12;3.00;99.90
21403;DHT22;10862;51.886;17.078;2024-03-07T07:46:39;2.80;99.90
21403;DHT22;10862;51.886;17.078;2024-03-07T07:49:06;3.40;99.90
21403;DHT22;10862;51.886;17.078;2024-03-07T07:51:31;3.40;99.90
21403;DHT22;10862;51.886;17.078;2024-03-07T07:53:57;4.70;91.70
21403;DHT22;10862;51.886;17.078;2024-03-07T07:56:23;4.20;1.00
21403;DHT22;10862;51.886;17.078;2024-03-07T07:58:49;4.10;51.40
21403;DHT22;10862;51.886;17.078;2024-03-07T08:01:15;4.40;1.00
21403;DHT22;10862;51.886;17.078;2024-03-07T08:03:42;4.10;1.00
21403;DHT22;10862;51.886;17.078;2024-03-07T08:06:08;3.70;1.00
21403;DHT22;10862;51.886;17.078;2024-03-07T08:08:34;4.20;1.00
21403;DHT22;10862;51.886;17.078;2024-03-07T08:10:59;3.90;1.00
21403;DHT22;10862;51.886;17.078;2024-03-07T08:13:25;3.90;1.00
21403;DHT22;10862;51.886;17.078;2024-03-07T08:15:50;4.10;1.00
21403;DHT22;10862;51.886;17.078;2024-03-07T08:18:16;4.30;1.00
21403;DHT22;10862;51.886;17.078;2024-03-07T08:20:42;5.00;1.00
21403;DHT22;10862;51.886;17.078;2024-03-07T08:23:08;4.70;1.00
21403;DHT22;10862;51.886;17.078;2024-03-07T08:25:34;5.30;1.00
21403;DHT22;10862;51.886;17.078;2024-03-07T08:27:59;4.30;1.00
21403;DHT22;10862;51.886;17.078;2024-03-07T08:30:25;5.60;1.00
21403;DHT22;10862;51.886;17.078;2024-03-07T08:32:53;5.90;1.00
21403;DHT22;10862;51.886;17.078;2024-03-07T08:35:19;6.00;1.00
21403;DHT22;10862;51.886;17.078;2024-03-07T08:37:45;6.80;1.00
21403;DHT22;10862;51.886;17.078;2024-03-07T08:40:11;7.10;1.00
21403;DHT22;10862;51.886;17.078;2024-03-07T08:42:44;7.40;1.00
21403;DHT22;10862;51.886;17.078;2024-03-07T08:45:10;7.70;1.00
21403;DHT22;10862;51.886;17.078;2024-03-07T08:47:36;8.30;1.00
21403;DHT22;10862;51.886;17.078;2024-03-07T08:50:03;8.80;14.10
21403;DHT22;10862;51.886;17.078;2024-03-07T08:52:33;9.00;99.90
21403;DHT22;10862;51.886;17.078;2024-03-07T08:55:01;9.50;99.90
21403;DHT22;10862;51.886;17.078;2024-03-07T08:57:27;10.20;99.90
21403;DHT22;10862;51.886;17.078;2024-03-07T08:59:52;10.00;1.00
21403;DHT22;10862;51.886;17.078;2024-03-07T09:02:20;10.40;1.00
21403;DHT22;10862;51.886;17.078;2024-03-07T09:04:45;10.90;1.00
21403;DHT22;10862;51.886;17.078;2024-03-07T09:07:11;10.60;1.00
21403;DHT22;10862;51.886;17.078;2024-03-07T09:09:37;9.80;99.90
21403;DHT22;10862;51.886;17.078;2024-03-07T09:12:03;10.70;99.90
21403;DHT22;10862;51.886;17.078;2024-03-07T09:14:28;11.30;51.90
21403;DHT22;10862;51.886;17.078;2024-03-07T09:16:54;11.60;99.90
21403;DHT22;10862;51.886;17.078;2024-03-07T09:19:19;11.70;47.70
21403;DHT22;10862;51.886;17.078;2024-03-07T09:21:46;11.90;1.00
21403;DHT22;10862;51.886;17.078;2024-03-07T09:24:11;11.30;1.00
21403;DHT22;10862;51.886;17.078;2024-03-07T09:26:37;11.00;99.90
21403;DHT22;10862;51.886;17.078;2024-03-07T09:29:03;10.80;1.00
21403;DHT22;10862;51.886;17.078;2024-03-07T09:31:31;9.30;99.90
21403;DHT22;10862;51.886;17.078;2024-03-07T09:33:57;8.50;1.00
21403;DHT22;10862;51.886;17.078;2024-03-07T09:36:26;9.10;1.00
21403;DHT22;10862;51.886;17.078;2024-03-07T09:38:52;10.00;99.90
21403;DHT22;10862;51.886;17.078;2024-03-07T09:41:18;9.40;99.90
21403;DHT22;10862;51.886;17.078;2024-03-07T09:43:48;8.80;11.40
21403;DHT22;10862;51.886;17.078;2024-03-07T09:46:16;9.00;99.90
21403;DHT22;10862;51.886;17.078;2024-03-07T09:48:43;10.70;99.90
21403;DHT22;10862;51.886;17.078;2024-03-07T09:51:09;10.40;1.00
21403;DHT22;10862;51.886;17.078;2024-03-07T09:53:38;10.60;99.90
21403;DHT22;10862;51.886;17.078;2024-03-07T09:56:05;11.80;1.00
21403;DHT22;10862;51.886;17.078;2024-03-07T09:58:32;11.00;1.00
21403;DHT22;10862;51.886;17.078;2024-03-07T10:00:59;11.80;99.90
21403;DHT22;10862;51.886;17.078;2024-03-07T10:03:25;12.40;1.00
21403;DHT22;10862;51.886;17.078;2024-03-07T10:05:54;12.40;1.00
21403;DHT22;10862;51.886;17.078;2024-03-07T10:08:20;12.00;1.00
21403;DHT22;10862;51.886;17.078;2024-03-07T10:10:47;12.20;1.00
21403;DHT22;10862;51.886;17.078;2024-03-07T10:13:13;12.20;51.10
21403;DHT22;10862;51.886;17.078;2024-03-07T10:15:38;11.70;1.00
21403;DHT22;10862;51.886;17.078;2024-03-07T10:18:06;10.20;1.00
21403;DHT22;10862;51.886;17.078;2024-03-07T10:20:32;8.90;1.00
21403;DHT22;10862;51.886;17.078;2024-03-07T10:22:57;9.30;99.90
21403;DHT22;10862;51.886;17.078;2024-03-07T10:25:23;10.60;99.90
21403;DHT22;10862;51.886;17.078;2024-03-07T10:27:53;11.20;99.90
21403;DHT22;10862;51.886;17.078;2024-03-07T10:30:18;12.00;99.90
21403;DHT22;10862;51.886;17.078;2024-03-07T10:32:47;11.60;1.00
21403;DHT22;10862;51.886;17.078;2024-03-07T10:35:14;11.70;1.00
21403;DHT22;10862;51.886;17.078;2024-03-07T10:37:40;13.60;99.90
21403;DHT22;10862;51.886;17.078;2024-03-07T10:40:06;12.20;99.90
21403;DHT22;10862;51.886;17.078;2024-03-07T10:42:43;9.80;1.00
21403;DHT22;10862;51.886;17.078;2024-03-07T10:45:10;8.50;1.00
21403;DHT22;10862;51.886;17.078;2024-03-07T10:47:36;9.50;1.00
21403;DHT22;10862;51.886;17.078;2024-03-07T10:52:38;11.60;99.90
21403;DHT22;10862;51.886;17.078;2024-03-07T10:57:49;12.30;1.00
21403;DHT22;10862;51.886;17.078;2024-03-07T11:00:19;12.90;1.00
21403;DHT22;10862;51.886;17.078;2024-03-07T11:02:55;12.20;1.00
21403;DHT22;10862;51.886;17.078;2024-03-07T11:05:21;11.90;1.00
21403;DHT22;10862;51.886;17.078;2024-03-07T11:07:49;11.60;99.90
21403;DHT22;10862;51.886;17.078;2024-03-07T11:10:18;11.60;99.90
21403;DHT22;10862;51.886;17.078;2024-03-07T11:12:46;11.70;99.90
21403;DHT22;10862;51.886;17.078;2024-03-07T11:15:12;12.00;99.90
21403;DHT22;10862;51.886;17.078;2024-03-07T11:17:45;12.50;99.90
21403;DHT22;10862;51.886;17.078;2024-03-07T11:20:18;12.50;1.00
21403;DHT22;10862;51.886;17.078;2024-03-07T11:22:45;11.90;99.90
21403;DHT22;10862;51.886;17.078;2024-03-07T11:25:10;13.70;99.90
21403;DHT22;10862;51.886;17.078;2024-03-07T11:27:37;12.90;99.90
21403;DHT22;10862;51.886;17.078;2024-03-07T11:30:07;12.70;99.90
21403;DHT22;10862;51.886;17.078;2024-03-07T11:32:39;12.70;1.00
21403;DHT22;10862;51.886;17.078;2024-03-07T11:35:15;12.90;99.90
21403;DHT22;10862;51.886;17.078;2024-03-07T11:37:43;12.60;1.00
21403;DHT22;10862;51.886;17.078;2024-03-07T11:40:59;12.70;99.90
21403;DHT22;10862;51.886;17.078;2024-03-07T11:42:57;12.00;1.00
21403;DHT22;10862;51.886;17.078;2024-03-07T11:45:25;11.90;1.00
21403;DHT22;10862;51.886;17.078;2024-03-07T11:47:57;11.80;1.00
21403;DHT22;10862;51.886;17.078;2024-03-07T11:50:25;11.90;1.00
21403;DHT22;10862;51.886;17.078;2024-03-07T11:53:00;11.40;1.00
21403;DHT22;10862;51.886;17.078;2024-03-07T11:55:26;11.90;99.90
21403;DHT22;10862;51.886;17.078;2024-03-07T11:57:53;12.10;1.00
21403;DHT22;10862;51.886;17.078;2024-03-07T12:00:19;12.70;99.90
21403;DHT22;10862;51.886;17.078;2024-03-07T12:02:45;11.30;99.90
21403;DHT22;10862;51.886;17.078;2024-03-07T12:05:13;11.90;99.90
21403;DHT22;10862;51.886;17.078;2024-03-07T12:07:41;11.60;1.00
21403;DHT22;10862;51.886;17.078;2024-03-07T12:10:07;11.50;1.00
21403;DHT22;10862;51.886;17.078;2024-03-07T12:12:32;11.10;1.00
21403;DHT22;10862;51.886;17.078;2024-03-07T12:14:58;10.70;1.00
21403;DHT22;10862;51.886;17.078;2024-03-07T12:17:24;10.40;96.60
21403;DHT22;10862;51.886;17.078;2024-03-07T12:19:50;10.00;1.00
21403;DHT22;10862;51.886;17.078;2024-03-07T12:22:19;9.00;1.00
21403;DHT22;10862;51.886;17.078;2024-03-07T12:25:00;8.80;99.90
21403;DHT22;10862;51.886;17.078;2024-03-07T12:27:33;8.60;95.20
21403;DHT22;10862;51.886;17.078;2024-03-07T12:29:58;8.50;1.00
21403;DHT22;10862;51.886;17.078;2024-03-07T12:32:27;8.70;1.00
21403;DHT22;10862;51.886;17.078;2024-03-07T12:34:52;9.00;1.00
21403;DHT22;10862;51.886;17.078;2024-03-07T12:37:18;9.00;99.90
21403;DHT22;10862;51.886;17.078;2024-03-07T12:39:44;9.20;1.00
21403;DHT22;10862;51.886;17.078;2024-03-07T12:42:14;8.70;1.00
21403;DHT22;10862;51.886;17.078;2024-03-07T12:44:43;8.50;1.00
21403;DHT22;10862;51.886;17.078;2024-03-07T12:47:17;8.60;1.00
21403;DHT22;10862;51.886;17.078;2024-03-07T12:49:43;8.70;1.00
21403;DHT22;10862;51.886;17.078;2024-03-07T12:52:08;8.60;1.00
21403;DHT22;10862;51.886;17.078;2024-03-07T12:54:35;8.40;1.00
21403;DHT22;10862;51.886;17.078;2024-03-07T12:57:06;8.40;99.90
21403;DHT22;10862;51.886;17.078;2024-03-07T12:59:31;8.70;99.90
21403;DHT22;10862;51.886;17.078;2024-03-07T13:01:57;8.70;1.00
21403;DHT22;10862;51.886;17.078;2024-03-07T13:04:22;8.90;1.00
21403;DHT22;10862;51.886;17.078;2024-03-07T13:06:51;8.60;1.00
21403;DHT22;10862;51.886;17.078;2024-03-07T13:09:16;8.70;99.90
21403;DHT22;10862;51.886;17.078;2024-03-07T13:11:51;8.70;99.90
21403;DHT22;10862;51.886;17.078;2024-03-07T13:14:16;8.50;99.90
21403;DHT22;10862;51.886;17.078;2024-03-07T13:16:42;8.40;99.90
21403;DHT22;10862;51.886;17.078;2024-03-07T13:19:08;8.20;99.90
21403;DHT22;10862;51.886;17.078;2024-03-07T13:21:34;8.00;38.80
21403;DHT22;10862;51.886;17.078;2024-03-07T13:24:01;8.40;99.90
21403;DHT22;10862;51.886;17.078;2024-03-07T13:26:26;8.60;1.00
21403;DHT22;10862;51.886;17.078;2024-03-07T13:28:55;8.40;99.90
21403;DHT22;10862;51.886;17.078;2024-03-07T13:31:21;8.10;99.90
21403;DHT22;10862;51.886;17.078;2024-03-07T13:33:48;8.00;1.00
21403;DHT22;10862;51.886;17.078;2024-03-07T13:36:17;8.20;1.00
21403;DHT22;10862;51.886;17.078;2024-03-07T13:38:54;8.40;99.90
21403;DHT22;10862;51.886;17.078;2024-03-07T13:41:21;8.40;1.00
21403;DHT22;10862;51.886;17.078;2024-03-07T13:43:49;8.30;99.90
21403;DHT22;10862;51.886;17.078;2024-03-07T13:46:16;8.30;20.90
21403;DHT22;10862;51.886;17.078;2024-03-07T13:48:43;8.60;1.00
21403;DHT22;10862;51.886;17.078;2024-03-07T13:51:09;8.40;1.50
21403;DHT22;10862;51.886;17.078;2024-03-07T13:53:35;8.60;57.20
21403;DHT22;10862;51.886;17.078;2024-03-07T14:06:16;9.60;99.90
21403;DHT22;10862;51.886;17.078;2024-03-07T14:14:12;10.10;99.90
21403;DHT22;10862;51.886;17.078;2024-03-07T14:19:43;10.30;13.00
21403;DHT22;10862;51.886;17.078;2024-03-07T14:22:22;11.00;1.00
21403;DHT22;10862;51.886;17.078;2024-03-07T14:25:12;11.30;1.00
21403;DHT22;10862;51.886;17.078;2024-03-07T14:27:50;10.80;1.00
21403;DHT22;10862;51.886;17.078;2024-03-07T14:33:00;11.10;1.00
21403;DHT22;10862;51.886;17.078;2024-03-07T14:40:39;11.50;1.00
21403;DHT22;10862;51.886;17.078;2024-03-07T14:43:04;11.60;1.00
21403;DHT22;10862;51.886;17.078;2024-03-07T14:45:38;11.50;1.00
21403;DHT22;10862;51.886;17.078;2024-03-07T14:48:04;11.30;99.90
21403;DHT22;10862;51.886;17.078;2024-03-07T14:50:32;11.40;99.90
21403;DHT22;10862;51.886;17.078;2024-03-07T14:52:58;11.40;1.00
21403;DHT22;10862;51.886;17.078;2024-03-07T14:55:24;11.20;99.90
21403;DHT22;10862;51.886;17.078;2024-03-07T14:57:49;11.30;1.00
21403;DHT22;10862;51.886;17.078;2024-03-07T15:00:15;11.40;1.00
21403;DHT22;10862;51.886;17.078;2024-03-07T15:02:52;11.30;1.00
21403;DHT22;10862;51.886;17.078;2024-03-07T15:05:20;10.60;1.00
21403;DHT22;10862;51.886;17.078;2024-03-07T15:07:45;10.00;99.90
21403;DHT22;10862;51.886;17.078;2024-03-07T15:10:18;9.80;99.90
21403;DHT22;10862;51.886;17.078;2024-03-07T15:12:46;9.70;99.90
21403;DHT22;10862;51.886;17.078;2024-03-07T15:15:14;9.80;99.90
21403;DHT22;10862;51.886;17.078;2024-03-07T15:17:40;10.00;41.10
21403;DHT22;10862;51.886;17.078;2024-03-07T15:20:08;9.90;99.90
21403;DHT22;10862;51.886;17.078;2024-03-07T15:22:41;9.60;99.90
21403;DHT22;10862;51.886;17.078;2024-03-07T15:25:12;9.70;13.60
21403;DHT22;10862;51.886;17.078;2024-03-07T15:27:40;10.00;1.00
21403;DHT22;10862;51.886;17.078;2024-03-07T15:30:06;10.10;49.80
21403;DHT22;10862;51.886;17.078;2024-03-07T15:32:36;10.60;1.00
21403;DHT22;10862;51.886;17.078;2024-03-07T15:35:02;10.10;1.00
21403;DHT22;10862;51.886;17.078;2024-03-07T15:37:38;9.80;1.00
21403;DHT22;10862;51.886;17.078;2024-03-07T15:40:07;9.70;1.00
21403;DHT22;10862;51.886;17.078;2024-03-07T15:42:43;9.80;1.00
21403;DHT22;10862;51.886;17.078;2024-03-07T15:45:13;9.60;1.00
21403;DHT22;10862;51.886;17.078;2024-03-07T15:47:42;9.50;1.00
21403;DHT22;10862;51.886;17.078;2024-03-07T15:50:08;9.30;1.00
21403;DHT22;10862;51.886;17.078;2024-03-07T15:52:33;9.10;1.00
21403;DHT22;10862;51.886;17.078;2024-03-07T15:55:02;8.80;1.00
21403;DHT22;10862;51.886;17.078;2024-03-07T15:57:27;8.50;99.90
21403;DHT22;10862;51.886;17.078;2024-03-07T15:59:53;9.00;99.90
21403;DHT22;10862;51.886;17.078;2024-03-07T16:02:21;8.00;99.90
21403;DHT22;10862;51.886;17.078;2024-03-07T16:04:47;7.80;1.00